CAL186 RCTP-ZBTJ
Flight info
| Callsign | CAL186 |
|---|---|
| Flight time | N/A |
| Altitude | 38000 |
| Route | PIANO1A PIANO L3 VIOLA R596 SULEM/K0902S1160 R596 BZ A470 EMRID V143 SAPIN A470 DPX A593 DALIM W157 AVBOX AVBOX3H |
| Aircraft | B77W/H-SDE1E2E3FGHIJ2J3J4J5M1RWXYZ/LB1D1 |
Departure
| Time | N/A |
|---|---|
| Airport | Taiwan Taoyuan International Airport (RCTP) |
Arrival
| Time | 2026-04-29 17:03 |
|---|---|
| Airport | Tianjin Binhai International Airport (ZBTJ) |
| Time | Latitude | Longitude | Altitude | Speed | Heading |
|---|---|---|---|---|---|
| 2026-04-29 15:26 | 29.29043 | 119.63224 | 38037 ft | 505 kts | 354° |
| 2026-04-29 15:26 | 29.36069 | 119.63674 | 38050 ft | 507 kts | 354° |
| 2026-04-29 15:27 | 29.43119 | 119.64130 | 38055 ft | 509 kts | 354° |
| 2026-04-29 15:27 | 29.50201 | 119.64578 | 38036 ft | 510 kts | 353° |
| 2026-04-29 15:28 | 29.57169 | 119.64136 | 38043 ft | 496 kts | 342° |
| 2026-04-29 15:28 | 29.63755 | 119.62492 | 38057 ft | 485 kts | 335° |
| 2026-04-29 15:29 | 29.70279 | 119.60549 | 38067 ft | 484 kts | 335° |
| 2026-04-29 15:30 | 29.83410 | 119.56737 | 38078 ft | 491 kts | 336° |
| 2026-04-29 15:30 | 29.90058 | 119.54847 | 38075 ft | 492 kts | 336° |
| 2026-04-29 15:31 | 29.96657 | 119.52974 | 38084 ft | 493 kts | 336° |
| 2026-04-29 15:31 | 30.03159 | 119.51130 | 38079 ft | 488 kts | 336° |
| 2026-04-29 15:32 | 30.09709 | 119.49259 | 38074 ft | 483 kts | 336° |
| 2026-04-29 15:32 | 30.16223 | 119.47393 | 38106 ft | 482 kts | 335° |
| 2026-04-29 15:33 | 30.22715 | 119.45528 | 38088 ft | 482 kts | 335° |
| 2026-04-29 15:33 | 30.29196 | 119.43669 | 38073 ft | 484 kts | 335° |
| 2026-04-29 15:34 | 30.35756 | 119.41781 | 38086 ft | 487 kts | 335° |
| 2026-04-29 15:34 | 30.42345 | 119.39888 | 38097 ft | 489 kts | 335° |
| 2026-04-29 15:35 | 30.48915 | 119.37994 | 38087 ft | 491 kts | 335° |
| 2026-04-29 15:35 | 30.55556 | 119.36082 | 38094 ft | 491 kts | 335° |
| 2026-04-29 15:36 | 30.62191 | 119.34169 | 38106 ft | 491 kts | 335° |
| 2026-04-29 15:36 | 30.68821 | 119.32252 | 38110 ft | 491 kts | 335° |
| 2026-04-29 15:37 | 30.75408 | 119.30344 | 38097 ft | 491 kts | 335° |
| 2026-04-29 15:37 | 30.82041 | 119.28422 | 38098 ft | 491 kts | 335° |
| 2026-04-29 15:38 | 30.88658 | 119.26501 | 38113 ft | 490 kts | 335° |
| 2026-04-29 15:38 | 30.95275 | 119.24576 | 38130 ft | 491 kts | 335° |
| 2026-04-29 15:39 | 31.01863 | 119.22654 | 38113 ft | 493 kts | 335° |
| 2026-04-29 15:39 | 31.08527 | 119.20713 | 38117 ft | 494 kts | 335° |
| 2026-04-29 15:40 | 31.15206 | 119.18764 | 38114 ft | 495 kts | 335° |
| 2026-04-29 15:40 | 31.21864 | 119.16821 | 38132 ft | 497 kts | 335° |
| 2026-04-29 15:41 | 31.28566 | 119.14862 | 38119 ft | 496 kts | 335° |
| 2026-04-29 15:41 | 31.35245 | 119.12907 | 38113 ft | 495 kts | 335° |
| 2026-04-29 15:42 | 31.41921 | 119.10952 | 38125 ft | 493 kts | 334° |
| 2026-04-29 15:42 | 31.48577 | 119.09005 | 38127 ft | 493 kts | 334° |
| 2026-04-29 15:43 | 31.55178 | 119.07069 | 38124 ft | 491 kts | 334° |
| 2026-04-29 15:43 | 31.61769 | 119.05039 | 38120 ft | 488 kts | 332° |
| 2026-04-29 15:44 | 31.68188 | 119.02659 | 38119 ft | 478 kts | 327° |
| 2026-04-29 15:44 | 31.74283 | 118.99876 | 38135 ft | 478 kts | 326° |
| 2026-04-29 15:45 | 31.80505 | 118.97076 | 38133 ft | 480 kts | 327° |
| 2026-04-29 15:45 | 31.86716 | 118.94296 | 38133 ft | 482 kts | 326° |
| 2026-04-29 15:46 | 31.92984 | 118.91451 | 38135 ft | 484 kts | 326° |
| 2026-04-29 15:46 | 31.99279 | 118.88606 | 38180 ft | 486 kts | 326° |
| 2026-04-29 15:47 | 32.05605 | 118.85753 | 38145 ft | 488 kts | 326° |
| 2026-04-29 15:47 | 32.11915 | 118.82912 | 38144 ft | 489 kts | 326° |
| 2026-04-29 15:48 | 32.18285 | 118.80035 | 38132 ft | 490 kts | 326° |
| 2026-04-29 15:48 | 32.24650 | 118.77156 | 38141 ft | 490 kts | 326° |
| 2026-04-29 15:49 | 32.31019 | 118.74272 | 38135 ft | 491 kts | 326° |
| 2026-04-29 15:49 | 32.37345 | 118.71403 | 38139 ft | 490 kts | 326° |
| 2026-04-29 15:50 | 32.43714 | 118.68512 | 38141 ft | 489 kts | 326° |
| 2026-04-29 15:50 | 32.50066 | 118.65624 | 38168 ft | 489 kts | 325° |
| 2026-04-29 15:51 | 32.56423 | 118.62731 | 38157 ft | 491 kts | 325° |
| 2026-04-29 15:51 | 32.62767 | 118.59850 | 38154 ft | 491 kts | 325° |
| 2026-04-29 15:52 | 32.69198 | 118.57043 | 38130 ft | 498 kts | 329° |
| 2026-04-29 15:52 | 32.75853 | 118.54648 | 38140 ft | 501 kts | 330° |
| 2026-04-29 15:52 | 32.79193 | 118.53481 | 38302 ft | 501 kts | 330° |
| 2026-04-29 15:53 | 32.82540 | 118.52312 | 38179 ft | 502 kts | 330° |
| 2026-04-29 15:53 | 32.89206 | 118.49962 | 38156 ft | 503 kts | 330° |
| 2026-04-29 15:54 | 32.95910 | 118.47580 | 38156 ft | 503 kts | 330° |
| 2026-04-29 15:54 | 33.02614 | 118.45190 | 38150 ft | 503 kts | 330° |
| 2026-04-29 15:55 | 33.09321 | 118.42800 | 38154 ft | 503 kts | 330° |
| 2026-04-29 15:55 | 33.15991 | 118.40427 | 38150 ft | 503 kts | 330° |
| 2026-04-29 15:56 | 33.22694 | 118.38028 | 38152 ft | 503 kts | 330° |
| 2026-04-29 15:56 | 33.29389 | 118.35594 | 38159 ft | 503 kts | 329° |
| 2026-04-29 15:57 | 33.36096 | 118.33152 | 38156 ft | 505 kts | 330° |
| 2026-04-29 15:57 | 33.42818 | 118.30721 | 38161 ft | 505 kts | 330° |
| 2026-04-29 15:58 | 33.49501 | 118.28306 | 38154 ft | 505 kts | 330° |
| 2026-04-29 15:58 | 33.56241 | 118.25868 | 38156 ft | 505 kts | 330° |
| 2026-04-29 15:59 | 33.62977 | 118.23426 | 38164 ft | 506 kts | 330° |
| 2026-04-29 15:59 | 33.69669 | 118.21000 | 38159 ft | 506 kts | 330° |
| 2026-04-29 16:00 | 33.76406 | 118.18562 | 38160 ft | 505 kts | 330° |
| 2026-04-29 16:00 | 33.83134 | 118.16107 | 38196 ft | 505 kts | 330° |
| 2026-04-29 16:01 | 33.89854 | 118.13641 | 38165 ft | 505 kts | 330° |
| 2026-04-29 16:01 | 33.96571 | 118.11197 | 38151 ft | 504 kts | 330° |
| 2026-04-29 16:02 | 34.03212 | 118.08767 | 38166 ft | 502 kts | 330° |
| 2026-04-29 16:02 | 34.09891 | 118.06312 | 38232 ft | 501 kts | 330° |
| 2026-04-29 16:03 | 34.16574 | 118.03871 | 38172 ft | 501 kts | 330° |
| 2026-04-29 16:03 | 34.23189 | 118.01468 | 38167 ft | 499 kts | 330° |
| 2026-04-29 16:04 | 34.29716 | 117.99079 | 38171 ft | 497 kts | 330° |
| 2026-04-29 16:04 | 34.36346 | 117.96690 | 38195 ft | 497 kts | 330° |
| 2026-04-29 16:05 | 34.42987 | 117.94324 | 38171 ft | 497 kts | 330° |
| 2026-04-29 16:05 | 34.49580 | 117.91978 | 38170 ft | 497 kts | 330° |
| 2026-04-29 16:06 | 34.56206 | 117.89614 | 38170 ft | 497 kts | 330° |
| 2026-04-29 16:06 | 34.62846 | 117.87239 | 38185 ft | 497 kts | 330° |
| 2026-04-29 16:07 | 34.69442 | 117.84881 | 38181 ft | 498 kts | 330° |
| 2026-04-29 16:07 | 34.76087 | 117.82508 | 38182 ft | 498 kts | 331° |
| 2026-04-29 16:08 | 34.82736 | 117.80120 | 38182 ft | 498 kts | 331° |
| 2026-04-29 16:08 | 34.89345 | 117.77753 | 38186 ft | 497 kts | 330° |
| 2026-04-29 16:09 | 34.95965 | 117.75326 | 38185 ft | 497 kts | 330° |
| 2026-04-29 16:09 | 35.02571 | 117.72927 | 38188 ft | 495 kts | 331° |
| 2026-04-29 16:10 | 35.09170 | 117.70517 | 38213 ft | 494 kts | 330° |
| 2026-04-29 16:10 | 35.15712 | 117.68089 | 38195 ft | 494 kts | 330° |
| 2026-04-29 16:11 | 35.22289 | 117.65652 | 38175 ft | 494 kts | 330° |
| 2026-04-29 16:11 | 35.28864 | 117.63227 | 38189 ft | 493 kts | 330° |
| 2026-04-29 16:12 | 35.35441 | 117.60802 | 38223 ft | 494 kts | 331° |
| 2026-04-29 16:12 | 35.41982 | 117.58387 | 38182 ft | 494 kts | 331° |
| 2026-04-29 16:13 | 35.48563 | 117.55955 | 38193 ft | 494 kts | 331° |
| 2026-04-29 16:13 | 35.55147 | 117.53516 | 38190 ft | 494 kts | 331° |
| 2026-04-29 16:14 | 35.61728 | 117.51073 | 38192 ft | 494 kts | 331° |
| 2026-04-29 16:14 | 35.68258 | 117.48645 | 38192 ft | 494 kts | 331° |
| 2026-04-29 16:15 | 35.74841 | 117.46198 | 38186 ft | 495 kts | 332° |
| 2026-04-29 16:15 | 35.81426 | 117.43745 | 38196 ft | 494 kts | 332° |
| 2026-04-29 16:16 | 35.88019 | 117.41287 | 38197 ft | 495 kts | 332° |
| 2026-04-29 16:16 | 35.94556 | 117.38854 | 38184 ft | 494 kts | 332° |
| 2026-04-29 16:17 | 36.01112 | 117.36398 | 38192 ft | 492 kts | 332° |
| 2026-04-29 16:17 | 36.07665 | 117.33945 | 38233 ft | 492 kts | 333° |
| 2026-04-29 16:18 | 36.14214 | 117.31515 | 38199 ft | 491 kts | 333° |
| 2026-04-29 16:18 | 36.20704 | 117.29111 | 38186 ft | 489 kts | 333° |
| 2026-04-29 16:19 | 36.27222 | 117.26695 | 38191 ft | 488 kts | 332° |
| 2026-04-29 16:19 | 36.33726 | 117.24285 | 38228 ft | 488 kts | 333° |
| 2026-04-29 16:20 | 36.40236 | 117.21860 | 38189 ft | 488 kts | 332° |
| 2026-04-29 16:20 | 36.46485 | 117.18973 | 38189 ft | 479 kts | 326° |
| 2026-04-29 16:21 | 36.52598 | 117.15706 | 38207 ft | 479 kts | 326° |
| 2026-04-29 16:21 | 36.58730 | 117.12442 | 38213 ft | 481 kts | 327° |
| 2026-04-29 16:22 | 36.64899 | 117.09202 | 38203 ft | 482 kts | 327° |
| 2026-04-29 16:22 | 36.71046 | 117.05997 | 38207 ft | 482 kts | 327° |
| 2026-04-29 16:23 | 36.77241 | 117.02762 | 38208 ft | 483 kts | 327° |
| 2026-04-29 16:23 | 36.83355 | 116.99561 | 38232 ft | 484 kts | 327° |
| 2026-04-29 16:24 | 36.89571 | 116.96299 | 38225 ft | 484 kts | 327° |
| 2026-04-29 16:24 | 36.95747 | 116.93055 | 38218 ft | 485 kts | 327° |
| 2026-04-29 16:25 | 37.01946 | 116.89795 | 38218 ft | 484 kts | 327° |
| 2026-04-29 16:25 | 37.08161 | 116.86522 | 38270 ft | 485 kts | 328° |
| 2026-04-29 16:26 | 37.14384 | 116.83248 | 38232 ft | 485 kts | 328° |
| 2026-04-29 16:26 | 37.20563 | 116.79981 | 38216 ft | 485 kts | 328° |
| 2026-04-29 16:27 | 37.27004 | 116.77245 | 38228 ft | 491 kts | 334° |
| 2026-04-29 16:27 | 37.33561 | 116.74804 | 38239 ft | 492 kts | 335° |
| 2026-04-29 16:28 | 37.40134 | 116.72365 | 38229 ft | 492 kts | 335° |
| 2026-04-29 16:28 | 37.46652 | 116.69911 | 38225 ft | 492 kts | 334° |
| 2026-04-29 16:29 | 37.53211 | 116.67424 | 38229 ft | 492 kts | 334° |
| 2026-04-29 16:29 | 37.59772 | 116.64930 | 38232 ft | 493 kts | 335° |
| 2026-04-29 16:30 | 37.66332 | 116.62435 | 38230 ft | 492 kts | 335° |
| 2026-04-29 16:30 | 37.72848 | 116.59955 | 38231 ft | 492 kts | 335° |
| 2026-04-29 16:31 | 37.79404 | 116.57457 | 38259 ft | 492 kts | 335° |
| 2026-04-29 16:31 | 37.85926 | 116.54979 | 38232 ft | 493 kts | 336° |
| 2026-04-29 16:32 | 37.92485 | 116.52460 | 38233 ft | 491 kts | 335° |
| 2026-04-29 16:32 | 37.98630 | 116.49110 | 38218 ft | 480 kts | 324° |
| 2026-04-29 16:32 | 38.01474 | 116.46984 | 37816 ft | 470 kts | 318° |
| 2026-04-29 16:33 | 38.06659 | 116.42171 | 36855 ft | 456 kts | 316° |
| 2026-04-29 16:33 | 38.09202 | 116.39794 | 36405 ft | 451 kts | 316° |
| 2026-04-29 16:33 | 38.11735 | 116.37461 | 35969 ft | 447 kts | 316° |
| 2026-04-29 16:34 | 38.14233 | 116.35164 | 35533 ft | 442 kts | 316° |
| 2026-04-29 16:34 | 38.16711 | 116.32880 | 35107 ft | 437 kts | 316° |
| 2026-04-29 16:34 | 38.19159 | 116.30618 | 34681 ft | 433 kts | 315° |
| 2026-04-29 16:34 | 38.21581 | 116.28374 | 34274 ft | 429 kts | 315° |
| 2026-04-29 16:35 | 38.24106 | 116.26475 | 33705 ft | 434 kts | 331° |
| 2026-04-29 16:35 | 38.27071 | 116.25553 | 33262 ft | 444 kts | 347° |
| 2026-04-29 16:35 | 38.30174 | 116.25677 | 32830 ft | 451 kts | 6° |
| 2026-04-29 16:35 | 38.33216 | 116.26660 | 32407 ft | 450 kts | 9° |
| 2026-04-29 16:36 | 38.36216 | 116.27744 | 31963 ft | 447 kts | 9° |
| 2026-04-29 16:36 | 38.39193 | 116.28833 | 31517 ft | 444 kts | 9° |
| 2026-04-29 16:36 | 38.42161 | 116.29901 | 31086 ft | 441 kts | 9° |
| 2026-04-29 16:36 | 38.45105 | 116.30941 | 30657 ft | 438 kts | 8° |
| 2026-04-29 16:37 | 38.47996 | 116.31948 | 30242 ft | 435 kts | 9° |
| 2026-04-29 16:37 | 38.50898 | 116.32955 | 29755 ft | 431 kts | 10° |
| 2026-04-29 16:37 | 38.53786 | 116.33958 | 29251 ft | 427 kts | 11° |
| 2026-04-29 16:37 | 38.55681 | 116.34616 | 28927 ft | 425 kts | 11° |
| 2026-04-29 16:38 | 38.59480 | 116.35929 | 28268 ft | 420 kts | 12° |
| 2026-04-29 16:38 | 38.62260 | 116.36982 | 27755 ft | 413 kts | 20° |
| 2026-04-29 16:38 | 38.64681 | 116.38925 | 27253 ft | 411 kts | 40° |
| 2026-04-29 16:38 | 38.66532 | 116.41662 | 26798 ft | 406 kts | 58° |
| 2026-04-29 16:39 | 38.67864 | 116.44769 | 26433 ft | 400 kts | 62° |
| 2026-04-29 16:39 | 38.69141 | 116.47915 | 25978 ft | 397 kts | 62° |
| 2026-04-29 16:39 | 38.70400 | 116.51030 | 25548 ft | 393 kts | 62° |
| 2026-04-29 16:39 | 38.71660 | 116.54125 | 25098 ft | 389 kts | 62° |
| 2026-04-29 16:40 | 38.72912 | 116.57178 | 24603 ft | 383 kts | 62° |
| 2026-04-29 16:40 | 38.74133 | 116.60141 | 24087 ft | 370 kts | 62° |
| 2026-04-29 16:40 | 38.75322 | 116.63013 | 23547 ft | 359 kts | 62° |
| 2026-04-29 16:40 | 38.76475 | 116.65791 | 22940 ft | 348 kts | 62° |
| 2026-04-29 16:41 | 38.77583 | 116.68457 | 22370 ft | 339 kts | 62° |
| 2026-04-29 16:41 | 38.78691 | 116.71083 | 21797 ft | 331 kts | 61° |
| 2026-04-29 16:41 | 38.79789 | 116.73639 | 21238 ft | 323 kts | 62° |
| 2026-04-29 16:41 | 38.80862 | 116.76138 | 20671 ft | 316 kts | 61° |
| 2026-04-29 16:42 | 38.81911 | 116.78589 | 20148 ft | 310 kts | 61° |
| 2026-04-29 16:42 | 38.82940 | 116.80995 | 19617 ft | 306 kts | 61° |
| 2026-04-29 16:42 | 38.83946 | 116.83394 | 19108 ft | 304 kts | 66° |
| 2026-04-29 16:42 | 38.84429 | 116.85955 | 18575 ft | 299 kts | 86° |
| 2026-04-29 16:43 | 38.84235 | 116.88586 | 18052 ft | 296 kts | 99° |
| 2026-04-29 16:43 | 38.83763 | 116.91146 | 17513 ft | 294 kts | 101° |
| 2026-04-29 16:43 | 38.83255 | 116.93680 | 16964 ft | 294 kts | 102° |
| 2026-04-29 16:43 | 38.82742 | 116.96218 | 16416 ft | 293 kts | 102° |
| 2026-04-29 16:44 | 38.82232 | 116.98749 | 15907 ft | 293 kts | 101° |
| 2026-04-29 16:44 | 38.81727 | 117.01278 | 15378 ft | 293 kts | 101° |
| 2026-04-29 16:44 | 38.81223 | 117.03806 | 14869 ft | 293 kts | 101° |
| 2026-04-29 16:44 | 38.80728 | 117.06297 | 14422 ft | 290 kts | 101° |
| 2026-04-29 16:45 | 38.80229 | 117.08826 | 14275 ft | 295 kts | 101° |
| 2026-04-29 16:45 | 38.79731 | 117.11361 | 14223 ft | 291 kts | 101° |
| 2026-04-29 16:45 | 38.79241 | 117.13862 | 14217 ft | 289 kts | 101° |
| 2026-04-29 16:45 | 38.78730 | 117.16355 | 14197 ft | 291 kts | 107° |
| 2026-04-29 16:46 | 38.77654 | 117.18580 | 13771 ft | 301 kts | 135° |
| 2026-04-29 16:46 | 38.75891 | 117.20020 | 13257 ft | 302 kts | 150° |
| 2026-04-29 16:46 | 38.74022 | 117.21212 | 12744 ft | 298 kts | 150° |
| 2026-04-29 16:46 | 38.72182 | 117.22397 | 12194 ft | 294 kts | 150° |
| 2026-04-29 16:47 | 38.70427 | 117.23634 | 11677 ft | 289 kts | 139° |
| 2026-04-29 16:47 | 38.69203 | 117.25585 | 11149 ft | 279 kts | 109° |
| 2026-04-29 16:47 | 38.68831 | 117.27963 | 10643 ft | 272 kts | 86° |
| 2026-04-29 16:47 | 38.69101 | 117.30328 | 10136 ft | 268 kts | 67° |
| 2026-04-29 16:48 | 38.69867 | 117.32493 | 9580 ft | 267 kts | 60° |
| 2026-04-29 16:48 | 38.70745 | 117.34592 | 9018 ft | 267 kts | 59° |
| 2026-04-29 16:48 | 38.71612 | 117.36694 | 8495 ft | 267 kts | 59° |
| 2026-04-29 16:48 | 38.72467 | 117.38809 | 8291 ft | 271 kts | 60° |
| 2026-04-29 16:49 | 38.73318 | 117.40930 | 8230 ft | 271 kts | 59° |
| 2026-04-29 16:49 | 38.74471 | 117.42768 | 8213 ft | 264 kts | 32° |
| 2026-04-29 16:49 | 38.76134 | 117.43638 | 7915 ft | 260 kts | 4° |
| 2026-04-29 16:49 | 38.77916 | 117.43477 | 7418 ft | 257 kts | 341° |
| 2026-04-29 16:50 | 38.79565 | 117.42630 | 6868 ft | 256 kts | 332° |
| 2026-04-29 16:50 | 38.80625 | 117.41961 | 6494 ft | 255 kts | 330° |
| 2026-04-29 16:50 | 38.82755 | 117.40611 | 5762 ft | 255 kts | 331° |
| 2026-04-29 16:50 | 38.84330 | 117.39630 | 5311 ft | 252 kts | 332° |
| 2026-04-29 16:51 | 38.85872 | 117.38682 | 5130 ft | 243 kts | 332° |
| 2026-04-29 16:51 | 38.87402 | 117.37742 | 5121 ft | 243 kts | 331° |
| 2026-04-29 16:51 | 38.88926 | 117.36792 | 5116 ft | 244 kts | 331° |
| 2026-04-29 16:51 | 38.90453 | 117.35840 | 5121 ft | 244 kts | 331° |
| 2026-04-29 16:52 | 38.91979 | 117.34880 | 5091 ft | 244 kts | 332° |
| 2026-04-29 16:52 | 38.93509 | 117.33938 | 4878 ft | 243 kts | 332° |
| 2026-04-29 16:52 | 38.95041 | 117.32990 | 4423 ft | 248 kts | 331° |
| 2026-04-29 16:52 | 38.96581 | 117.32034 | 3990 ft | 251 kts | 331° |
| 2026-04-29 16:53 | 38.98164 | 117.31042 | 3620 ft | 254 kts | 331° |
| 2026-04-29 16:53 | 38.99730 | 117.30061 | 3500 ft | 245 kts | 330° |
| 2026-04-29 16:53 | 39.01201 | 117.29125 | 3481 ft | 229 kts | 330° |
| 2026-04-29 16:53 | 39.02623 | 117.28219 | 3495 ft | 228 kts | 331° |
| 2026-04-29 16:54 | 39.04048 | 117.27316 | 3495 ft | 228 kts | 331° |
| 2026-04-29 16:54 | 39.04990 | 117.26718 | 3449 ft | 229 kts | 330° |
| 2026-04-29 16:54 | 39.06931 | 117.25482 | 3003 ft | 237 kts | 330° |
| 2026-04-29 16:54 | 39.08403 | 117.24545 | 2650 ft | 239 kts | 330° |
| 2026-04-29 16:55 | 39.09395 | 117.23916 | 2602 ft | 230 kts | 330° |
| 2026-04-29 16:55 | 39.10798 | 117.23013 | 2593 ft | 222 kts | 328° |
| 2026-04-29 16:55 | 39.12148 | 117.22081 | 2598 ft | 222 kts | 329° |
| 2026-04-29 16:55 | 39.14006 | 117.20934 | 2603 ft | 224 kts | 330° |
| 2026-04-29 16:56 | 39.14954 | 117.20347 | 2591 ft | 223 kts | 330° |
| 2026-04-29 16:56 | 39.16333 | 117.19473 | 2602 ft | 223 kts | 330° |
| 2026-04-29 16:56 | 39.17718 | 117.18585 | 2592 ft | 222 kts | 330° |
| 2026-04-29 16:56 | 39.19095 | 117.17698 | 2594 ft | 221 kts | 329° |
| 2026-04-29 16:57 | 39.20459 | 117.16817 | 2592 ft | 217 kts | 330° |
| 2026-04-29 16:57 | 39.22446 | 117.16480 | 2593 ft | 229 kts | 12° |
| 2026-04-29 16:57 | 39.23416 | 117.17091 | 2592 ft | 234 kts | 36° |
| 2026-04-29 16:57 | 39.24370 | 117.18787 | 2509 ft | 231 kts | 62° |
| 2026-04-29 16:58 | 39.25020 | 117.20565 | 2198 ft | 216 kts | 62° |
| 2026-04-29 16:58 | 39.25663 | 117.22270 | 1934 ft | 205 kts | 60° |
| 2026-04-29 16:58 | 39.26142 | 117.23922 | 1873 ft | 197 kts | 81° |
| 2026-04-29 16:58 | 39.25861 | 117.25634 | 1912 ft | 201 kts | 122° |
| 2026-04-29 16:59 | 39.24857 | 117.26807 | 1928 ft | 193 kts | 148° |
| 2026-04-29 16:59 | 39.23720 | 117.27640 | 1914 ft | 184 kts | 152° |
| 2026-04-29 16:59 | 39.22593 | 117.28360 | 1914 ft | 175 kts | 153° |
| 2026-04-29 16:59 | 39.22433 | 117.28459 | 1922 ft | 172 kts | 153° |
| 2026-04-29 17:00 | 39.22308 | 117.28536 | 1929 ft | 169 kts | 150° |
| 2026-04-29 17:00 | 39.21225 | 117.29232 | 1752 ft | 176 kts | 155° |
| 2026-04-29 17:00 | 39.20127 | 117.29885 | 1488 ft | 170 kts | 155° |
| 2026-04-29 17:00 | 39.19110 | 117.30509 | 1256 ft | 153 kts | 154° |
| 2026-04-29 17:01 | 39.18156 | 117.31098 | 1086 ft | 156 kts | 154° |
| 2026-04-29 17:01 | 39.17182 | 117.31694 | 862 ft | 154 kts | 154° |
| 2026-04-29 17:01 | 39.16217 | 117.32290 | 654 ft | 153 kts | 152° |
| 2026-04-29 17:01 | 39.15274 | 117.32870 | 412 ft | 149 kts | 150° |
| 2026-04-29 17:02 | 39.14356 | 117.33440 | 176 ft | 142 kts | 149° |
| 2026-04-29 17:02 | 39.13471 | 117.33971 | 46 ft | 134 kts | 150° |
| 2026-04-29 17:02 | 39.12741 | 117.34431 | 29 ft | 92 kts | 156° |
| 2026-04-29 17:02 | 39.12332 | 117.34682 | 26 ft | 51 kts | 154° |
| 2026-04-29 17:03 | 39.12018 | 117.34877 | 28 ft | 38 kts | 155° |
| 2026-04-29 17:03 | 39.11872 | 117.34992 | 31 ft | 14 kts | 140° |
| 2026-04-29 17:03 | 39.11804 | 117.35080 | 26 ft | 14 kts | 127° |
| 2026-04-29 17:03 | 39.11749 | 117.35189 | 28 ft | 15 kts | 110° |
| 2026-04-29 17:04 | 39.11758 | 117.35261 | 26 ft | 2 kts | 26° |
| 2026-04-29 17:04 | 39.11805 | 117.35255 | 27 ft | 11 kts | 341° |
| 2026-04-29 17:04 | 39.11878 | 117.35217 | 26 ft | 12 kts | 338° |
| 2026-04-29 17:04 | 39.11954 | 117.35173 | 29 ft | 12 kts | 334° |
| 2026-04-29 17:05 | 39.12031 | 117.35124 | 27 ft | 13 kts | 333° |
| 2026-04-29 17:05 | 39.12109 | 117.35073 | 28 ft | 13 kts | 333° |
| 2026-04-29 17:05 | 39.12188 | 117.35023 | 28 ft | 13 kts | 334° |
| 2026-04-29 17:05 | 39.12274 | 117.34992 | 25 ft | 13 kts | 15° |
| 2026-04-29 17:06 | 39.12359 | 117.35040 | 26 ft | 14 kts | 360° |
| 2026-04-29 17:06 | 39.12453 | 117.35019 | 26 ft | 14 kts | 2° |
| 2026-04-29 17:06 | 39.12548 | 117.35025 | 27 ft | 14 kts | 3° |
| 2026-04-29 17:06 | 39.12637 | 117.35032 | 28 ft | 12 kts | 3° |
| 2026-04-29 17:07 | 39.12704 | 117.35046 | 27 ft | 6 kts | 33° |
| 2026-04-29 17:07 | 39.12713 | 117.35065 | 29 ft | 3 kts | 65° |
| 2026-04-29 17:07 | 39.12714 | 117.35103 | 29 ft | 5 kts | 91° |
| 2026-04-29 17:07 | 39.12713 | 117.35140 | 28 ft | 3 kts | 92° |
| 2026-04-29 17:08 | 39.12713 | 117.35154 | 27 ft | 0 kts | 92° |